createdAt,value
2019-01-27T00:02:21.793Z,0.83
2019-01-27T00:04:50.533Z,0.60
2019-01-27T00:07:19.252Z,0.70
2019-01-27T00:09:48.254Z,0.70
2019-01-27T00:12:16.981Z,0.60
2019-01-27T00:14:45.777Z,0.53
2019-01-27T00:17:14.670Z,0.50
2019-01-27T00:19:43.479Z,1.70
2019-01-27T00:22:12.228Z,1.33
2019-01-27T00:24:40.961Z,0.80
2019-01-27T00:27:09.685Z,0.70
2019-01-27T00:29:38.417Z,0.53
2019-01-27T00:32:07.188Z,3.70
2019-01-27T00:34:36.184Z,0.67
2019-01-27T00:37:05.322Z,0.60
2019-01-27T00:39:34.036Z,0.77
2019-01-27T00:42:02.924Z,0.60
2019-01-27T00:44:31.637Z,0.70
2019-01-27T00:47:00.346Z,0.50
2019-01-27T00:49:29.304Z,0.70
2019-01-27T00:51:58.041Z,0.83
2019-01-27T00:54:27.011Z,1.00
2019-01-27T00:56:57.377Z,0.90
2019-01-27T00:59:26.311Z,1.20
2019-01-27T01:01:55.282Z,0.80
2019-01-27T01:04:23.997Z,1.90
2019-01-27T01:06:52.725Z,1.10
2019-01-27T01:09:21.432Z,1.40
2019-01-27T01:11:50.490Z,1.30
2019-01-27T01:14:19.524Z,1.20
2019-01-27T01:16:48.234Z,0.80
2019-01-27T01:19:17.220Z,1.10
2019-01-27T01:21:45.920Z,1.30
2019-01-27T01:24:14.673Z,0.90
2019-01-27T01:26:43.393Z,1.30
2019-01-27T01:29:12.345Z,1.27
2019-01-27T01:31:41.576Z,1.00
2019-01-27T01:34:10.348Z,1.27
2019-01-27T01:36:39.406Z,1.10
2019-01-27T01:39:09.066Z,1.37
2019-01-27T01:41:38.026Z,1.70
2019-01-27T01:44:07.221Z,1.57
2019-01-27T01:46:36.415Z,1.50
2019-01-27T01:49:05.281Z,1.33
2019-01-27T01:51:34.243Z,1.50
2019-01-27T01:54:04.355Z,2.73
2019-01-27T01:56:33.247Z,1.03
2019-01-27T01:59:02.493Z,1.30
2019-01-27T02:01:31.388Z,1.57
2019-01-27T02:04:00.114Z,1.10
2019-01-27T02:06:29.098Z,0.97
2019-01-27T02:08:57.899Z,1.00
2019-01-27T02:11:26.853Z,0.90
2019-01-27T02:13:55.835Z,0.90
2019-01-27T02:16:24.639Z,0.70
2019-01-27T02:18:53.696Z,1.10
2019-01-27T02:21:22.933Z,0.70
2019-01-27T02:23:51.733Z,0.90
2019-01-27T02:26:20.505Z,0.90
2019-01-27T02:28:49.355Z,0.80
2019-01-27T02:31:18.589Z,0.67
2019-01-27T02:33:47.581Z,0.90
2019-01-27T02:36:16.687Z,0.67
2019-01-27T02:38:45.693Z,0.63
2019-01-27T02:41:14.513Z,0.77
2019-01-27T02:43:43.445Z,0.80
2019-01-27T02:46:12.577Z,0.83
2019-01-27T02:48:41.348Z,0.80
2019-01-27T02:51:10.392Z,0.77
2019-01-27T02:53:39.375Z,0.90
2019-01-27T02:56:08.424Z,0.90
2019-01-27T02:58:37.142Z,0.80
2019-01-27T03:01:06.149Z,0.90
2019-01-27T03:03:35.482Z,0.80
2019-01-27T03:06:27.796Z,1.13
2019-01-27T03:09:01.739Z,0.77
2019-01-27T03:11:47.189Z,0.70
2019-01-27T03:14:17.267Z,0.70
2019-01-27T03:16:46.987Z,1.00
2019-01-27T03:19:16.073Z,3.23
2019-01-27T03:21:44.902Z,0.90
2019-01-27T03:24:13.627Z,0.83
2019-01-27T03:26:42.716Z,1.00
2019-01-27T03:29:11.753Z,4.40
2019-01-27T03:31:40.540Z,0.90
2019-01-27T03:34:09.366Z,0.77
2019-01-27T03:36:38.081Z,0.93
2019-01-27T03:39:10.233Z,1.03
2019-01-27T03:41:39.100Z,1.03
2019-01-27T03:44:08.318Z,1.20
2019-01-27T03:46:37.215Z,1.20
2019-01-27T03:49:07.133Z,0.90
2019-01-27T03:51:38.667Z,0.70
2019-01-27T03:54:07.722Z,0.60
2019-01-27T03:56:36.544Z,0.60
2019-01-27T03:59:05.904Z,0.60
2019-01-27T04:01:34.932Z,0.77
2019-01-27T04:04:04.078Z,0.67
2019-01-27T04:06:32.891Z,0.90
2019-01-27T04:09:01.709Z,0.73
2019-01-27T04:11:30.492Z,0.60
2019-01-27T04:13:59.669Z,0.97
2019-01-27T04:16:28.442Z,0.70
2019-01-27T04:18:57.578Z,0.70
2019-01-27T04:21:26.297Z,0.70
2019-01-27T04:23:55.286Z,0.73
2019-01-27T04:26:24.086Z,3.40
2019-01-27T04:28:53.039Z,0.60
2019-01-27T04:31:22.022Z,0.50
2019-01-27T04:33:50.909Z,0.53
2019-01-27T04:36:19.606Z,0.50
2019-01-27T04:38:48.390Z,0.50
2019-01-27T04:41:19.352Z,0.50
2019-01-27T04:43:48.072Z,0.50
2019-01-27T04:46:20.589Z,0.60
2019-01-27T04:48:49.641Z,0.50
2019-01-27T04:51:18.404Z,0.50
2019-01-27T04:53:47.952Z,0.50
2019-01-27T04:56:16.665Z,0.40
2019-01-27T04:58:45.497Z,0.40
2019-01-27T05:01:14.301Z,0.40
2019-01-27T05:03:51.325Z,0.30
2019-01-27T05:06:20.086Z,0.40
2019-01-27T05:08:48.992Z,0.37
2019-01-27T05:11:17.824Z,0.40
2019-01-27T05:13:46.894Z,0.33
2019-01-27T05:16:15.886Z,0.30
2019-01-27T05:18:44.906Z,0.40
2019-01-27T05:21:13.933Z,0.37
2019-01-27T05:23:43.001Z,0.63
2019-01-27T05:26:12.034Z,0.30
2019-01-27T05:28:41.006Z,0.40
2019-01-27T05:31:09.706Z,0.40
2019-01-27T05:33:38.433Z,0.30
2019-01-27T05:36:07.154Z,0.30
2019-01-27T05:38:35.958Z,0.70
2019-01-27T05:41:04.734Z,0.30
2019-01-27T05:43:33.684Z,0.30
2019-01-27T05:46:02.441Z,0.30
2019-01-27T05:48:31.152Z,0.40
2019-01-27T05:50:59.888Z,0.30
2019-01-27T05:53:28.897Z,0.40
2019-01-27T05:55:57.883Z,0.50
2019-01-27T05:58:26.849Z,1.13
2019-01-27T06:00:55.604Z,0.40
2019-01-27T06:03:24.306Z,0.40
2019-01-27T06:05:53.283Z,0.40
2019-01-27T06:08:22.021Z,0.40
2019-01-27T06:10:50.961Z,0.50
2019-01-27T06:13:19.668Z,0.50
2019-01-27T06:15:48.413Z,0.40
2019-01-27T06:18:17.271Z,0.43
2019-01-27T06:20:46.037Z,0.40
2019-01-27T06:23:15.023Z,0.50
2019-01-27T06:25:44.049Z,0.93
2019-01-27T06:28:13.378Z,0.40
2019-01-27T06:30:42.443Z,0.33
2019-01-27T06:33:20.297Z,0.40
2019-01-27T06:35:49.277Z,0.40
2019-01-27T06:38:18.066Z,0.40
2019-01-27T06:40:46.853Z,0.50
2019-01-27T06:43:15.956Z,0.50
2019-01-27T06:45:45.097Z,0.40
2019-01-27T06:48:13.788Z,0.60
2019-01-27T06:50:42.684Z,0.40
2019-01-27T06:53:11.389Z,0.50
2019-01-27T06:55:40.089Z,0.50
2019-01-27T06:58:10.032Z,0.37
2019-01-27T07:01:06.398Z,0.40
2019-01-27T07:03:42.110Z,0.40
2019-01-27T07:06:35.137Z,0.40
2019-01-27T07:09:31.769Z,0.50
2019-01-27T07:12:16.921Z,0.30
2019-01-27T07:14:55.156Z,0.40
2019-01-27T07:17:36.598Z,0.40
2019-01-27T07:20:34.589Z,0.30
2019-01-27T07:23:17.358Z,0.67
2019-01-27T07:26:08.511Z,0.40
2019-01-27T07:28:46.867Z,0.60
2019-01-27T07:31:33.752Z,0.60
2019-01-27T07:34:25.729Z,0.90
2019-01-27T07:37:16.981Z,0.50
2019-01-27T07:39:57.676Z,0.50
2019-01-27T07:42:34.232Z,1.33
2019-01-27T07:45:31.914Z,0.50
2019-01-27T07:48:23.376Z,0.60
2019-01-27T07:51:20.035Z,0.40
2019-01-27T07:54:01.803Z,1.70
2019-01-27T07:57:18.251Z,0.67
2019-01-27T07:59:52.985Z,0.50
2019-01-27T08:02:35.873Z,0.47
2019-01-27T08:05:23.264Z,0.40
2019-01-27T08:08:14.146Z,0.50
2019-01-27T08:10:54.275Z,0.50
2019-01-27T08:13:33.725Z,0.53
2019-01-27T08:16:10.936Z,0.60
2019-01-27T08:19:08.122Z,0.57
2019-01-27T08:21:55.600Z,0.53
2019-01-27T08:24:52.920Z,0.60
2019-01-27T08:27:38.293Z,0.60
2019-01-27T08:30:35.413Z,0.93
2019-01-27T08:33:27.013Z,1.10
2019-01-27T08:36:05.373Z,1.13
2019-01-27T08:38:53.619Z,0.80
2019-01-27T08:41:34.757Z,1.10
2019-01-27T08:44:28.910Z,1.03
2019-01-27T08:47:00.249Z,0.60
2019-01-27T08:49:28.956Z,0.80
2019-01-27T08:51:57.712Z,0.87
2019-01-27T08:54:26.685Z,0.67
2019-01-27T08:56:55.630Z,0.97
2019-01-27T08:59:24.434Z,0.67
2019-01-27T09:02:11.048Z,0.70
2019-01-27T09:04:53.454Z,0.93
2019-01-27T09:07:49.665Z,0.67
2019-01-27T09:10:28.592Z,0.70
2019-01-27T09:13:19.752Z,0.60
2019-01-27T09:16:13.446Z,0.60
2019-01-27T09:19:00.969Z,0.83
2019-01-27T09:21:51.665Z,4.03
2019-01-27T09:24:45.649Z,0.90
2019-01-27T09:27:19.725Z,0.60
2019-01-27T09:30:06.724Z,0.57
2019-01-27T09:33:09.831Z,0.60
2019-01-27T09:36:06.520Z,0.60
2019-01-27T09:38:44.192Z,0.63
2019-01-27T09:41:30.892Z,1.27
2019-01-27T09:44:13.933Z,0.60
2019-01-27T09:47:16.969Z,0.70
2019-01-27T09:50:00.849Z,1.40
2019-01-27T09:53:00.740Z,1.07
2019-01-27T09:55:47.586Z,0.80
2019-01-27T09:58:33.707Z,1.17
2019-01-27T10:01:07.368Z,0.90
2019-01-27T10:03:45.229Z,0.50
2019-01-27T10:06:26.906Z,0.57
2019-01-27T10:09:24.925Z,0.60
2019-01-27T10:12:11.379Z,0.73
2019-01-27T10:15:18.408Z,0.60
2019-01-27T10:17:54.388Z,0.40
2019-01-27T10:20:30.908Z,0.60
2019-01-27T10:23:24.899Z,0.40
2019-01-27T10:26:06.046Z,1.17
2019-01-27T10:28:45.287Z,0.80
2019-01-27T10:31:29.135Z,1.00
2019-01-27T10:34:12.553Z,0.70
2019-01-27T10:36:57.286Z,1.60
2019-01-27T10:39:33.121Z,5.37
2019-01-27T10:42:10.970Z,1.70
2019-01-27T10:45:00.915Z,1.10
2019-01-27T10:47:55.575Z,3.60
2019-01-27T10:50:45.844Z,0.70
2019-01-27T10:53:23.358Z,0.63
2019-01-27T10:56:11.489Z,0.90
2019-01-27T10:58:50.302Z,0.50
2019-01-27T11:01:27.587Z,0.57
2019-01-27T11:04:15.494Z,2.97
2019-01-27T11:07:03.358Z,1.07
2019-01-27T11:09:48.490Z,0.50
2019-01-27T11:12:28.209Z,0.30
2019-01-27T11:15:06.282Z,0.93
2019-01-27T11:18:05.346Z,0.40
2019-01-27T11:20:52.776Z,1.80
2019-01-27T11:23:38.908Z,0.57
2019-01-27T11:26:23.468Z,0.50
2019-01-27T11:29:26.796Z,0.30
2019-01-27T11:32:17.785Z,0.40
2019-01-27T11:35:00.631Z,0.63
2019-01-27T11:37:39.972Z,2.30
2019-01-27T11:40:34.688Z,0.50
2019-01-27T11:43:12.260Z,0.87
2019-01-27T11:46:06.237Z,1.73
2019-01-27T11:48:46.691Z,2.97
2019-01-27T11:51:28.662Z,2.47
2019-01-27T11:53:57.786Z,0.73
2019-01-27T11:56:26.750Z,0.60
2019-01-27T11:58:55.789Z,1.00
2019-01-27T12:01:25.178Z,1.70
2019-01-27T12:03:54.460Z,0.50
2019-01-27T12:06:23.690Z,1.30
2019-01-27T12:08:52.825Z,1.03
2019-01-27T12:11:21.908Z,0.80
2019-01-27T12:13:54.124Z,1.33
2019-01-27T12:16:23.283Z,1.27
2019-01-27T12:18:52.601Z,0.50
2019-01-27T12:21:21.701Z,0.70
2019-01-27T12:23:50.445Z,5.03
2019-01-27T12:26:19.237Z,2.00
2019-01-27T12:28:48.299Z,0.60
2019-01-27T12:31:17.429Z,0.60
2019-01-27T12:34:05.376Z,1.23
2019-01-27T12:36:34.451Z,0.60
2019-01-27T12:39:05.055Z,2.10
2019-01-27T12:41:34.160Z,0.53
2019-01-27T12:44:03.206Z,0.50
2019-01-27T12:46:32.131Z,2.47
2019-01-27T12:49:00.848Z,1.17
2019-01-27T12:51:29.601Z,1.23
2019-01-27T12:53:58.350Z,0.70
2019-01-27T12:56:27.438Z,0.83
2019-01-27T12:58:56.300Z,17.10
2019-01-27T13:01:25.100Z,0.90
2019-01-27T13:03:53.829Z,0.83
2019-01-27T13:06:22.577Z,0.60
2019-01-27T13:08:51.326Z,1.40
2019-01-27T13:11:39.293Z,0.60
2019-01-27T13:14:12.633Z,0.83
2019-01-27T13:16:41.604Z,1.77
2019-01-27T13:19:10.362Z,1.40
2019-01-27T13:21:39.069Z,0.70
2019-01-27T13:24:08.567Z,0.60
2019-01-27T13:26:37.389Z,0.80
2019-01-27T13:29:06.209Z,0.50
2019-01-27T13:31:34.922Z,0.90
2019-01-27T13:34:03.685Z,0.60
2019-01-27T13:36:32.732Z,1.07
2019-01-27T13:39:01.963Z,0.47
2019-01-27T13:41:31.204Z,0.83
2019-01-27T13:44:00.014Z,1.60
2019-01-27T13:46:29.078Z,0.60
2019-01-27T13:48:57.865Z,0.97
2019-01-27T13:51:26.692Z,1.27
2019-01-27T13:53:55.554Z,1.80
2019-01-27T13:56:24.800Z,1.37
2019-01-27T13:58:53.585Z,2.87
2019-01-27T14:01:22.436Z,0.53
2019-01-27T14:03:51.479Z,0.50
2019-01-27T14:06:20.792Z,0.80
2019-01-27T14:08:49.850Z,0.60
2019-01-27T14:11:18.898Z,1.43
2019-01-27T14:13:47.865Z,0.50
2019-01-27T14:16:16.686Z,0.90
2019-01-27T14:18:45.419Z,0.60
2019-01-27T14:21:16.570Z,0.60
2019-01-27T14:23:45.080Z,1.90
2019-01-27T14:26:14.036Z,2.87
2019-01-27T14:28:42.775Z,2.13
2019-01-27T14:31:11.766Z,2.07
2019-01-27T14:33:41.878Z,1.53
2019-01-27T14:36:10.772Z,1.27
2019-01-27T14:38:39.620Z,0.60
2019-01-27T14:41:08.417Z,2.00
2019-01-27T14:43:37.146Z,0.80
2019-01-27T14:46:06.093Z,0.80
2019-01-27T14:48:34.835Z,0.80
2019-01-27T14:51:03.895Z,0.30
2019-01-27T14:53:32.967Z,0.83
2019-01-27T14:56:01.702Z,0.70
2019-01-27T14:58:30.526Z,1.90
2019-01-27T15:01:00.253Z,0.80
2019-01-27T15:03:30.599Z,0.80
2019-01-27T15:05:59.328Z,0.80
2019-01-27T15:08:28.069Z,3.43
2019-01-27T15:10:56.799Z,3.67
2019-01-27T15:13:25.760Z,7.77
2019-01-27T15:16:13.721Z,1.90
2019-01-27T15:18:42.425Z,1.77
2019-01-27T15:21:15.444Z,0.67
2019-01-27T15:23:44.232Z,0.50
2019-01-27T15:26:13.043Z,1.70
2019-01-27T15:28:41.827Z,1.43
2019-01-27T15:31:10.548Z,0.63
2019-01-27T15:33:39.372Z,0.60
2019-01-27T15:36:09.590Z,0.40
2019-01-27T15:38:38.313Z,1.03
2019-01-27T15:41:07.113Z,0.30
2019-01-27T15:43:36.076Z,0.30
2019-01-27T15:46:05.057Z,0.30
2019-01-27T15:48:33.782Z,0.50
2019-01-27T15:51:02.758Z,0.67
2019-01-27T15:53:31.649Z,0.40
2019-01-27T15:56:00.630Z,2.87
2019-01-27T15:58:29.386Z,1.20
2019-01-27T16:00:58.146Z,2.97
2019-01-27T16:03:27.849Z,0.70
2019-01-27T16:05:56.657Z,0.30
2019-01-27T16:08:25.472Z,0.50
2019-01-27T16:10:54.468Z,1.70
2019-01-27T16:13:23.181Z,0.30
2019-01-27T16:15:51.930Z,1.30
2019-01-27T16:18:20.719Z,6.13
2019-01-27T16:20:49.537Z,2.10
2019-01-27T16:23:36.033Z,4.57
2019-01-27T16:26:05.302Z,3.13
2019-01-27T16:28:34.345Z,1.60
2019-01-27T16:31:20.116Z,0.70
2019-01-27T16:33:56.127Z,0.77
2019-01-27T16:36:26.140Z,1.00
2019-01-27T16:38:55.008Z,0.80
2019-01-27T16:41:23.904Z,3.30
2019-01-27T16:43:54.130Z,1.30
2019-01-27T16:46:23.262Z,1.27
2019-01-27T16:48:52.139Z,2.80
2019-01-27T16:51:20.998Z,1.70
2019-01-27T16:53:49.962Z,2.90
2019-01-27T16:56:19.083Z,1.20
2019-01-27T16:58:47.899Z,1.23
2019-01-27T17:01:17.482Z,0.80
2019-01-27T17:03:46.377Z,1.30
2019-01-27T17:06:15.218Z,0.77
2019-01-27T17:08:44.311Z,0.60
2019-01-27T17:11:14.578Z,0.57
2019-01-27T17:13:44.219Z,1.17
2019-01-27T17:16:13.210Z,0.60
2019-01-27T17:18:48.322Z,0.93
2019-01-27T17:21:17.022Z,1.20
2019-01-27T17:23:46.310Z,1.20
2019-01-27T17:26:15.570Z,1.10
2019-01-27T17:28:44.778Z,0.73
2019-01-27T17:31:13.639Z,2.30
2019-01-27T17:33:42.661Z,1.00
2019-01-27T17:36:11.779Z,3.33
2019-01-27T17:38:40.986Z,1.77
2019-01-27T17:41:09.859Z,1.63
2019-01-27T17:43:38.689Z,1.67
2019-01-27T17:46:08.094Z,2.50
2019-01-27T17:48:37.537Z,1.80
2019-01-27T17:51:07.137Z,2.10
2019-01-27T17:53:44.972Z,2.63
2019-01-27T17:56:14.360Z,2.90
2019-01-27T17:58:54.378Z,3.47
2019-01-27T18:01:53.672Z,2.80
2019-01-27T18:04:40.236Z,5.53
2019-01-27T18:07:19.921Z,6.27
2019-01-27T18:10:11.015Z,6.03
2019-01-27T18:13:02.342Z,4.80
2019-01-27T18:15:31.169Z,6.10
2019-01-27T18:18:00.404Z,3.77
2019-01-27T18:20:29.176Z,4.03
2019-01-27T18:22:58.388Z,4.40
2019-01-27T18:25:27.235Z,3.00
2019-01-27T18:27:56.208Z,4.73
2019-01-27T18:30:25.145Z,6.97
2019-01-27T18:32:54.568Z,2.20
2019-01-27T18:35:23.410Z,7.30
2019-01-27T18:37:52.273Z,5.47
2019-01-27T18:40:21.353Z,5.70
2019-01-27T18:42:50.230Z,1.90
2019-01-27T18:45:19.394Z,8.90
2019-01-27T18:47:48.398Z,3.50
2019-01-27T18:50:18.819Z,5.30
2019-01-27T18:52:49.345Z,5.53
2019-01-27T18:55:28.697Z,12.77
2019-01-27T18:58:10.954Z,4.23
2019-01-27T19:00:48.086Z,3.33
2019-01-27T19:03:25.449Z,9.57
2019-01-27T19:06:19.375Z,6.27
2019-01-27T19:09:10.118Z,7.10
2019-01-27T19:11:48.726Z,4.83
2019-01-27T19:14:37.672Z,7.20
2019-01-27T19:17:27.929Z,7.20
2019-01-27T19:20:21.650Z,11.43
2019-01-27T19:23:12.396Z,7.50
2019-01-27T19:25:59.206Z,5.97
2019-01-27T19:29:02.177Z,10.87
2019-01-27T19:31:44.394Z,11.37
2019-01-27T19:34:27.310Z,5.87
2019-01-27T19:37:15.138Z,18.57
2019-01-27T19:39:55.170Z,10.87
2019-01-27T19:42:43.016Z,14.53
2019-01-27T19:45:29.836Z,9.10
2019-01-27T19:48:09.138Z,7.53
2019-01-27T19:50:55.963Z,17.17
2019-01-27T19:53:41.711Z,10.80
2019-01-27T19:56:31.105Z,5.60
2019-01-27T19:59:31.205Z,14.50
2019-01-27T20:02:22.878Z,10.50
2019-01-27T20:05:15.609Z,13.50
2019-01-27T20:07:54.456Z,9.33
2019-01-27T20:10:41.387Z,11.47
2019-01-27T20:13:19.797Z,17.57
2019-01-27T20:16:17.097Z,10.20
2019-01-27T20:19:00.183Z,10.53
2019-01-27T20:21:43.547Z,15.00
2019-01-27T20:24:31.392Z,12.77
2019-01-27T20:27:18.075Z,7.50
2019-01-27T20:30:24.193Z,5.67
2019-01-27T20:33:10.682Z,9.73
2019-01-27T20:36:01.656Z,8.17
2019-01-27T20:38:40.096Z,8.47
2019-01-27T20:41:30.975Z,8.33
2019-01-27T20:44:31.309Z,15.10
2019-01-27T20:47:11.588Z,8.80
2019-01-27T20:49:48.887Z,10.00
2019-01-27T20:52:26.271Z,36.97
2019-01-27T20:55:14.610Z,16.23
2019-01-27T20:57:50.595Z,10.70
2019-01-27T21:00:54.421Z,9.73
2019-01-27T21:03:43.306Z,18.10
2019-01-27T21:06:17.550Z,16.90
2019-01-27T21:09:04.715Z,14.27
2019-01-27T21:12:02.253Z,17.00
2019-01-27T21:14:52.849Z,27.70
2019-01-27T21:17:43.858Z,27.67
2019-01-27T21:20:16.453Z,18.97
2019-01-27T21:22:45.558Z,17.90
2019-01-27T21:25:14.690Z,13.23
2019-01-27T21:27:43.570Z,16.30
2019-01-27T21:30:14.501Z,12.20
2019-01-27T21:32:43.715Z,18.97
2019-01-27T21:35:12.524Z,18.10
2019-01-27T21:37:41.517Z,14.83
2019-01-27T21:40:14.213Z,19.07
2019-01-27T21:42:47.632Z,13.90
2019-01-27T21:45:13.890Z,14.20
2019-01-27T21:47:43.594Z,10.70
2019-01-27T21:50:15.661Z,15.30
2019-01-27T21:52:44.453Z,13.53
2019-01-27T21:55:15.549Z,11.47
2019-01-27T21:57:44.285Z,8.70
2019-01-27T22:00:17.041Z,13.30
2019-01-27T22:02:46.011Z,13.80
2019-01-27T22:05:14.810Z,11.57
2019-01-27T22:07:43.713Z,17.50
2019-01-27T22:10:13.161Z,23.63
2019-01-27T22:13:02.810Z,12.87
2019-01-27T22:15:31.693Z,17.17
2019-01-27T22:18:00.422Z,15.97
2019-01-27T22:20:29.153Z,16.70
2019-01-27T22:22:57.888Z,16.33
2019-01-27T22:25:26.606Z,16.83
2019-01-27T22:27:55.334Z,23.43
2019-01-27T22:30:24.072Z,18.80
2019-01-27T22:32:52.840Z,20.63
2019-01-27T22:35:21.984Z,24.93
2019-01-27T22:37:50.974Z,18.67
2019-01-27T22:40:19.800Z,19.90
2019-01-27T22:42:48.530Z,20.10
2019-01-27T22:45:17.605Z,21.77
2019-01-27T22:47:46.671Z,16.70
2019-01-27T22:50:17.023Z,15.80
2019-01-27T22:52:45.906Z,15.03
2019-01-27T22:55:15.008Z,19.17
2019-01-27T22:57:43.721Z,17.40
2019-01-27T23:00:22.241Z,21.07
2019-01-27T23:02:51.385Z,16.70
2019-01-27T23:05:20.368Z,19.00
2019-01-27T23:07:49.178Z,16.67
2019-01-27T23:10:18.262Z,15.30
2019-01-27T23:12:47.056Z,15.80
2019-01-27T23:15:15.925Z,11.53
2019-01-27T23:17:46.023Z,15.30
2019-01-27T23:20:14.972Z,14.90
2019-01-27T23:22:44.006Z,18.57
2019-01-27T23:25:12.808Z,9.83
2019-01-27T23:27:41.562Z,12.23
2019-01-27T23:30:10.601Z,10.00
2019-01-27T23:32:39.323Z,10.37
2019-01-27T23:35:08.434Z,8.37
2019-01-27T23:37:37.469Z,8.53
2019-01-27T23:40:06.914Z,11.20
2019-01-27T23:42:36.344Z,9.80
2019-01-27T23:45:05.424Z,8.40
2019-01-27T23:47:34.412Z,7.70
2019-01-27T23:50:03.263Z,6.90
2019-01-27T23:52:32.001Z,6.40
2019-01-27T23:55:00.944Z,11.87
2019-01-27T23:57:30.801Z,8.13
2019-01-27T23:59:59.772Z,5.93
